createdAt,value
2023-09-06T00:00:44.904Z,101626.00
2023-09-06T00:03:16.426Z,101625.00
2023-09-06T00:05:47.501Z,101624.00
2023-09-06T00:08:19.018Z,101630.00
2023-09-06T00:10:49.665Z,101632.00
2023-09-06T00:13:23.099Z,101631.00
2023-09-06T00:15:53.571Z,101618.00
2023-09-06T00:18:24.482Z,101628.00
2023-09-06T00:20:55.051Z,101626.00
2023-09-06T00:23:26.101Z,101620.00
2023-09-06T00:25:56.780Z,101618.00
2023-09-06T00:28:29.889Z,101617.00
2023-09-06T00:31:01.086Z,101609.00
2023-09-06T00:33:34.789Z,101615.00
2023-09-06T00:36:07.854Z,101613.00
2023-09-06T00:38:38.363Z,101614.00
2023-09-06T00:41:08.876Z,101620.00
2023-09-06T00:43:41.945Z,101620.00
2023-09-06T00:46:12.638Z,101609.00
2023-09-06T00:48:43.146Z,101613.00
2023-09-06T00:51:13.997Z,101613.00
2023-09-06T00:53:44.465Z,101613.00
2023-09-06T00:56:16.008Z,101621.00
2023-09-06T00:58:49.926Z,101620.00
2023-09-06T01:01:20.513Z,101621.00
2023-09-06T01:03:51.280Z,101614.00
2023-09-06T01:06:27.695Z,101609.00
2023-09-06T01:09:00.322Z,101606.00
2023-09-06T01:11:33.283Z,101617.00
2023-09-06T01:14:06.471Z,101613.00
2023-09-06T01:16:38.483Z,101608.00
2023-09-06T01:19:09.913Z,101602.00
2023-09-06T01:21:42.819Z,101608.00
2023-09-06T01:24:16.105Z,101605.00
2023-09-06T01:26:46.881Z,101603.00
2023-09-06T01:29:17.373Z,101603.00
2023-09-06T01:31:48.068Z,101608.00
2023-09-06T01:34:18.639Z,101602.00
2023-09-06T01:36:49.217Z,101608.00
2023-09-06T01:39:22.309Z,101606.00
2023-09-06T01:41:52.721Z,101606.00
2023-09-06T01:44:23.198Z,101604.00
2023-09-06T01:46:53.973Z,101601.00
2023-09-06T01:49:24.459Z,101595.00
2023-09-06T01:51:58.934Z,101606.00
2023-09-06T01:54:31.972Z,101591.00
2023-09-06T01:57:02.367Z,101599.00
2023-09-06T01:59:33.088Z,101588.00
2023-09-06T02:02:05.778Z,101589.00
2023-09-06T02:04:36.330Z,101592.00
2023-09-06T02:07:07.186Z,101591.00
2023-09-06T02:09:41.375Z,101587.00
2023-09-06T02:12:12.496Z,101587.00
2023-09-06T02:14:42.938Z,101592.00
2023-09-06T02:17:13.787Z,101592.00
2023-09-06T02:19:44.436Z,101593.00
2023-09-06T02:22:14.923Z,101586.00
2023-09-06T02:24:48.063Z,101589.00
2023-09-06T02:27:18.549Z,101599.00
2023-09-06T02:29:48.965Z,101595.00
2023-09-06T02:32:19.485Z,101597.00
2023-09-06T02:34:49.970Z,101601.00
2023-09-06T02:37:20.470Z,101599.00
2023-09-06T02:39:54.189Z,101604.00
2023-09-06T02:42:24.854Z,101612.00
2023-09-06T02:44:55.298Z,101612.00
2023-09-06T02:47:30.117Z,101609.00
2023-09-06T02:50:00.916Z,101606.00
2023-09-06T02:52:37.109Z,101606.00
2023-09-06T02:55:12.157Z,101612.00
2023-09-06T02:57:43.351Z,101618.00
2023-09-06T03:00:26.211Z,101621.00
2023-09-06T03:03:01.026Z,101624.00
2023-09-06T03:05:32.182Z,101627.00
2023-09-06T03:08:02.673Z,101622.00
2023-09-06T03:10:36.236Z,101627.00
2023-09-06T03:13:07.541Z,101632.00
2023-09-06T03:15:38.069Z,101629.00
2023-09-06T03:18:09.016Z,101626.00
2023-09-06T03:20:44.685Z,101628.00
2023-09-06T03:23:25.842Z,101625.00
2023-09-06T03:26:00.073Z,101629.00
2023-09-06T03:28:30.918Z,101635.00
2023-09-06T03:31:02.060Z,101631.00
2023-09-06T03:33:33.124Z,101638.00
2023-09-06T03:36:08.789Z,101629.00
2023-09-06T03:38:39.370Z,101640.00
2023-09-06T03:41:12.544Z,101644.00
2023-09-06T03:43:44.126Z,101645.00
2023-09-06T03:46:15.946Z,101651.00
2023-09-06T03:48:47.169Z,101654.00
2023-09-06T03:51:17.799Z,101649.00
2023-09-06T03:53:49.085Z,101652.00
2023-09-06T03:56:22.085Z,101654.00
2023-09-06T03:58:54.574Z,101655.00
2023-09-06T04:01:27.485Z,101660.00
2023-09-06T04:04:02.376Z,101651.00
2023-09-06T04:06:32.998Z,101660.00
2023-09-06T04:09:07.331Z,101659.00
2023-09-06T04:11:40.438Z,101657.00
2023-09-06T04:14:11.758Z,101657.00
2023-09-06T04:16:42.532Z,101660.00
2023-09-06T04:19:12.970Z,101662.00
2023-09-06T04:21:43.353Z,101662.00
2023-09-06T04:24:13.926Z,101653.00
2023-09-06T04:26:48.064Z,101668.00
2023-09-06T04:29:21.033Z,101663.00
2023-09-06T04:31:51.508Z,101669.00
2023-09-06T04:34:22.114Z,101659.00
2023-09-06T04:36:52.557Z,101668.00
2023-09-06T04:39:24.402Z,101665.00
2023-09-06T04:42:00.944Z,101666.00
2023-09-06T04:44:31.444Z,101665.00
2023-09-06T04:47:01.912Z,101673.00
2023-09-06T04:49:32.541Z,101673.00
2023-09-06T04:52:02.943Z,101674.00
2023-09-06T04:54:33.840Z,101678.00
2023-09-06T04:57:09.621Z,101682.00
2023-09-06T04:59:40.402Z,101678.00
2023-09-06T05:02:10.882Z,101677.00
2023-09-06T05:04:41.344Z,101681.00
2023-09-06T05:07:11.790Z,101675.00
2023-09-06T05:09:42.234Z,101676.00
2023-09-06T05:12:15.327Z,101680.00
2023-09-06T05:14:45.790Z,101686.00
2023-09-06T05:17:16.255Z,101687.00
2023-09-06T05:19:46.702Z,101687.00
2023-09-06T05:22:17.417Z,101686.00
2023-09-06T05:24:47.896Z,101686.00
2023-09-06T05:27:22.864Z,101684.00
2023-09-06T05:29:53.519Z,101693.00
2023-09-06T05:32:24.020Z,101689.00
2023-09-06T05:34:54.526Z,101691.00
2023-09-06T05:37:26.013Z,101689.00
2023-09-06T05:39:56.627Z,101695.00
2023-09-06T05:42:29.704Z,101689.00
2023-09-06T05:45:00.208Z,101693.00
2023-09-06T05:47:31.629Z,101695.00
2023-09-06T05:50:02.434Z,101701.00
2023-09-06T05:52:33.013Z,101703.00
2023-09-06T05:55:04.461Z,101694.00
2023-09-06T05:57:37.939Z,101698.00
2023-09-06T06:00:14.381Z,101701.00
2023-09-06T06:02:45.983Z,101700.00
2023-09-06T06:05:17.980Z,101701.00
2023-09-06T06:07:48.763Z,101706.00
2023-09-06T06:10:19.484Z,101709.00
2023-09-06T06:12:52.619Z,101702.00
2023-09-06T06:15:23.040Z,101715.00
2023-09-06T06:17:53.496Z,101706.00
2023-09-06T06:20:34.559Z,101707.00
2023-09-06T06:23:12.872Z,101716.00
2023-09-06T06:25:44.004Z,101714.00
2023-09-06T06:28:17.214Z,101717.00
2023-09-06T06:30:47.937Z,101708.00
2023-09-06T06:33:18.390Z,101716.00
2023-09-06T06:35:48.924Z,101709.00
2023-09-06T06:38:19.402Z,101713.00
2023-09-06T06:40:49.928Z,101710.00
2023-09-06T06:43:22.998Z,101713.00
2023-09-06T06:45:59.507Z,101714.00
2023-09-06T06:48:30.099Z,101719.00
2023-09-06T06:51:00.967Z,101722.00
2023-09-06T06:53:31.385Z,101715.00
2023-09-06T06:56:02.316Z,101722.00
2023-09-06T06:58:35.404Z,101708.00
2023-09-06T07:01:05.904Z,101710.00
2023-09-06T07:03:36.380Z,101709.00
2023-09-06T07:06:09.727Z,101717.00
2023-09-06T07:08:40.177Z,101720.00
2023-09-06T07:11:13.713Z,101727.00
2023-09-06T07:13:49.051Z,101720.00
2023-09-06T07:16:20.455Z,101722.00
2023-09-06T07:18:51.653Z,101723.00
2023-09-06T07:21:22.601Z,101728.00
2023-09-06T07:23:53.041Z,101735.00
2023-09-06T07:26:23.568Z,101726.00
2023-09-06T07:28:56.676Z,101731.00
2023-09-06T07:31:27.235Z,101734.00
2023-09-06T07:33:57.866Z,101733.00
2023-09-06T07:36:28.385Z,101736.00
2023-09-06T07:39:00.476Z,101742.00
2023-09-06T07:41:30.943Z,101735.00
2023-09-06T07:44:04.007Z,101736.00
2023-09-06T07:46:35.592Z,101738.00
2023-09-06T07:49:06.289Z,101750.00
2023-09-06T07:51:36.909Z,101746.00
2023-09-06T07:54:07.546Z,101752.00
2023-09-06T07:56:38.059Z,101751.00
2023-09-06T07:59:14.085Z,101755.00
2023-09-06T08:01:45.910Z,101749.00
2023-09-06T08:04:16.397Z,101754.00
2023-09-06T08:06:47.601Z,101758.00
2023-09-06T08:09:18.418Z,101762.00
2023-09-06T08:11:48.878Z,101758.00
2023-09-06T08:14:22.622Z,101767.00
2023-09-06T08:16:53.171Z,101758.00
2023-09-06T08:19:23.599Z,101758.00
2023-09-06T08:21:54.124Z,101762.00
2023-09-06T08:24:25.460Z,101754.00
2023-09-06T08:26:56.021Z,101755.00
2023-09-06T08:29:29.150Z,101758.00
2023-09-06T08:31:59.718Z,101759.00
2023-09-06T08:34:30.460Z,101759.00
2023-09-06T08:37:00.942Z,101757.00
2023-09-06T08:39:31.421Z,101755.00
2023-09-06T08:42:02.831Z,101753.00
2023-09-06T08:44:36.832Z,101763.00
2023-09-06T08:47:10.116Z,101762.00
2023-09-06T08:49:41.160Z,101759.00
2023-09-06T08:52:13.766Z,101762.00
2023-09-06T08:54:45.342Z,101763.00
2023-09-06T08:57:17.321Z,101761.00
2023-09-06T08:59:50.752Z,101766.00
2023-09-06T09:02:21.274Z,101758.00
2023-09-06T09:04:51.831Z,101755.00
2023-09-06T09:07:23.715Z,101772.00
2023-09-06T09:10:02.675Z,101770.00
2023-09-06T09:12:33.553Z,101768.00
2023-09-06T09:15:22.641Z,101774.00
2023-09-06T09:18:00.135Z,101764.00
2023-09-06T09:20:35.920Z,101767.00
2023-09-06T09:23:07.615Z,101776.00
2023-09-06T09:25:38.210Z,101771.00
2023-09-06T09:28:09.400Z,101771.00
2023-09-06T09:30:43.388Z,101779.00
2023-09-06T09:33:14.280Z,101774.00
2023-09-06T09:35:46.350Z,101771.00
2023-09-06T09:38:17.231Z,101773.00
2023-09-06T09:40:53.211Z,101777.00
2023-09-06T09:43:24.766Z,101778.00
2023-09-06T09:45:58.647Z,101781.00
2023-09-06T09:48:33.402Z,101781.00
2023-09-06T09:51:06.167Z,101782.00
2023-09-06T09:53:37.743Z,101776.00
2023-09-06T09:56:11.083Z,101777.00
2023-09-06T09:58:42.536Z,101770.00
2023-09-06T10:01:16.460Z,101771.00
2023-09-06T10:03:47.700Z,101773.00
2023-09-06T10:06:18.385Z,101769.00
2023-09-06T10:08:50.194Z,101768.00
2023-09-06T10:11:20.877Z,101770.00
2023-09-06T10:13:51.701Z,101773.00
2023-09-06T10:16:25.416Z,101781.00
2023-09-06T10:18:55.988Z,101773.00
2023-09-06T10:21:26.595Z,101773.00
2023-09-06T10:23:57.092Z,101775.00
2023-09-06T10:26:31.084Z,101770.00
2023-09-06T10:29:01.834Z,101776.00
2023-09-06T10:31:51.029Z,101780.00
2023-09-06T10:34:24.034Z,101776.00
2023-09-06T10:36:58.732Z,101776.00
2023-09-06T10:39:29.750Z,101779.00
2023-09-06T10:42:18.861Z,101781.00
2023-09-06T10:45:11.161Z,101780.00
2023-09-06T10:47:45.096Z,101779.00
2023-09-06T10:50:24.002Z,101780.00
2023-09-06T10:52:56.096Z,101773.00
2023-09-06T10:55:28.288Z,101771.00
2023-09-06T10:58:04.362Z,101771.00
2023-09-06T11:00:35.738Z,101768.00
2023-09-06T11:03:23.473Z,101760.00
2023-09-06T11:05:59.801Z,101765.00
2023-09-06T11:08:35.149Z,101770.00
2023-09-06T11:11:11.611Z,101758.00
2023-09-06T11:13:43.675Z,101761.00
2023-09-06T11:16:17.354Z,101755.00
2023-09-06T11:18:51.833Z,101762.00
2023-09-06T11:21:26.226Z,101755.00
2023-09-06T11:23:57.900Z,101758.00
2023-09-06T11:26:29.663Z,101761.00
2023-09-06T11:29:07.650Z,101746.00
2023-09-06T11:31:39.126Z,101757.00
2023-09-06T11:34:15.070Z,101761.00
2023-09-06T11:36:45.901Z,101745.00
2023-09-06T11:39:20.630Z,101751.00
2023-09-06T11:41:51.787Z,101751.00
2023-09-06T11:44:24.744Z,101751.00
2023-09-06T11:46:56.064Z,101745.00
2023-09-06T11:49:31.452Z,101749.00
2023-09-06T11:52:06.349Z,101745.00
2023-09-06T11:54:40.286Z,101748.00
2023-09-06T11:57:12.182Z,101742.00
2023-09-06T11:59:45.169Z,101745.00
2023-09-06T12:02:16.321Z,101734.00
2023-09-06T12:05:02.570Z,101728.00
2023-09-06T12:07:34.666Z,101729.00
2023-09-06T12:10:08.139Z,101730.00
2023-09-06T12:12:44.268Z,101735.00
2023-09-06T12:15:21.197Z,101739.00
2023-09-06T12:17:52.360Z,101733.00
2023-09-06T12:20:29.040Z,101728.00
2023-09-06T12:23:01.683Z,101734.00
2023-09-06T12:25:32.172Z,101727.00
2023-09-06T12:28:02.603Z,101721.00
2023-09-06T12:30:33.038Z,101718.00
2023-09-06T12:33:04.808Z,101723.00
2023-09-06T12:35:40.052Z,101718.00
2023-09-06T12:38:10.669Z,101720.00
2023-09-06T12:40:41.220Z,101731.00
2023-09-06T12:43:11.699Z,101725.00
2023-09-06T12:45:43.157Z,101724.00
2023-09-06T12:48:13.761Z,101718.00
2023-09-06T12:50:47.035Z,101721.00
2023-09-06T12:53:17.600Z,101713.00
2023-09-06T12:55:49.477Z,101716.00
2023-09-06T12:58:20.296Z,101715.00
2023-09-06T13:00:50.924Z,101712.00
2023-09-06T13:03:21.464Z,101718.00
2023-09-06T13:05:54.934Z,101713.00
2023-09-06T13:08:25.442Z,101710.00
2023-09-06T13:10:55.969Z,101710.00
2023-09-06T13:13:26.576Z,101707.00
2023-09-06T13:15:57.069Z,101708.00
2023-09-06T13:18:27.926Z,101707.00
2023-09-06T13:21:01.577Z,101708.00
2023-09-06T13:23:32.342Z,101696.00
2023-09-06T13:26:03.272Z,101707.00
2023-09-06T13:28:35.143Z,101701.00
2023-09-06T13:31:08.414Z,101709.00
2023-09-06T13:33:39.389Z,101702.00
2023-09-06T13:36:13.037Z,101705.00
2023-09-06T13:38:43.542Z,101698.00
2023-09-06T13:41:14.166Z,101704.00
2023-09-06T13:43:44.639Z,101709.00
2023-09-06T13:46:15.248Z,101700.00
2023-09-06T13:48:45.848Z,101700.00
2023-09-06T13:51:19.213Z,101694.00
2023-09-06T13:53:50.637Z,101695.00
2023-09-06T13:56:21.094Z,101686.00
2023-09-06T13:58:52.040Z,101694.00
2023-09-06T14:01:23.045Z,101689.00
2023-09-06T14:03:53.715Z,101687.00
2023-09-06T14:06:26.945Z,101689.00
2023-09-06T14:08:57.801Z,101683.00
2023-09-06T14:11:28.281Z,101678.00
2023-09-06T14:13:58.760Z,101681.00
2023-09-06T14:16:29.220Z,101681.00
2023-09-06T14:18:59.649Z,101675.00
2023-09-06T14:21:34.496Z,101672.00
2023-09-06T14:24:04.955Z,101673.00
2023-09-06T14:26:35.373Z,101673.00
2023-09-06T14:29:05.881Z,101672.00
2023-09-06T14:31:36.453Z,101668.00
2023-09-06T14:34:06.952Z,101662.00
2023-09-06T14:36:40.128Z,101671.00
2023-09-06T14:39:10.652Z,101662.00
2023-09-06T14:41:41.073Z,101668.00
2023-09-06T14:44:11.576Z,101667.00
2023-09-06T14:46:43.723Z,101661.00
2023-09-06T14:49:14.399Z,101667.00
2023-09-06T14:51:47.444Z,101663.00
2023-09-06T14:54:17.889Z,101666.00
2023-09-06T14:56:48.344Z,101657.00
2023-09-06T14:59:18.852Z,101662.00
2023-09-06T15:01:50.415Z,101661.00
2023-09-06T15:04:21.445Z,101661.00
2023-09-06T15:06:59.781Z,101663.00
2023-09-06T15:09:32.731Z,101657.00
2023-09-06T15:12:03.801Z,101659.00
2023-09-06T15:14:34.311Z,101658.00
2023-09-06T15:17:04.797Z,101660.00
2023-09-06T15:19:35.376Z,101658.00
2023-09-06T15:22:08.679Z,101664.00
2023-09-06T15:24:39.182Z,101660.00
2023-09-06T15:27:10.136Z,101655.00
2023-09-06T15:29:44.858Z,101668.00
2023-09-06T15:32:15.468Z,101658.00
2023-09-06T15:34:45.909Z,101665.00
2023-09-06T15:37:18.970Z,101663.00
2023-09-06T15:39:49.475Z,101662.00
2023-09-06T15:42:19.983Z,101656.00
2023-09-06T15:44:50.520Z,101656.00
2023-09-06T15:47:21.091Z,101658.00
2023-09-06T15:49:56.305Z,101665.00
2023-09-06T15:52:30.043Z,101673.00
2023-09-06T15:55:00.508Z,101670.00
2023-09-06T15:57:31.083Z,101666.00
2023-09-06T16:00:12.805Z,101668.00
2023-09-06T16:02:51.181Z,101674.00
2023-09-06T16:05:21.770Z,101674.00
2023-09-06T16:07:54.915Z,101665.00
2023-09-06T16:10:25.407Z,101665.00
2023-09-06T16:12:56.468Z,101664.00
2023-09-06T16:15:27.387Z,101670.00
2023-09-06T16:17:58.014Z,101672.00
2023-09-06T16:20:28.543Z,101674.00
2023-09-06T16:23:02.109Z,101676.00
2023-09-06T16:25:32.539Z,101673.00
2023-09-06T16:28:02.964Z,101672.00
2023-09-06T16:30:33.726Z,101674.00
2023-09-06T16:33:04.418Z,101675.00
2023-09-06T16:35:36.676Z,101671.00
2023-09-06T16:38:10.527Z,101669.00
2023-09-06T16:40:42.947Z,101672.00
2023-09-06T16:43:13.412Z,101665.00
2023-09-06T16:45:44.430Z,101665.00
2023-09-06T16:48:15.670Z,101663.00
2023-09-06T16:50:46.366Z,101668.00
2023-09-06T16:53:20.572Z,101666.00
2023-09-06T16:55:51.391Z,101670.00
2023-09-06T16:58:21.910Z,101673.00
2023-09-06T17:00:53.394Z,101676.00
2023-09-06T17:03:23.945Z,101675.00
2023-09-06T17:05:54.496Z,101675.00
2023-09-06T17:08:27.817Z,101681.00
2023-09-06T17:10:58.547Z,101672.00
2023-09-06T17:13:29.406Z,101680.00
2023-09-06T17:15:59.975Z,101678.00
2023-09-06T17:18:31.633Z,101675.00
2023-09-06T17:21:07.464Z,101686.00
2023-09-06T17:23:53.224Z,101682.00
2023-09-06T17:26:31.824Z,101686.00
2023-09-06T17:29:07.043Z,101687.00
2023-09-06T17:31:38.146Z,101680.00
2023-09-06T17:34:09.384Z,101690.00
2023-09-06T17:36:39.827Z,101693.00
2023-09-06T17:39:15.290Z,101687.00
2023-09-06T17:41:45.737Z,101696.00
2023-09-06T17:44:16.502Z,101697.00
2023-09-06T17:46:47.049Z,101690.00
2023-09-06T17:49:17.626Z,101691.00
2023-09-06T17:51:48.199Z,101694.00
2023-09-06T17:54:28.017Z,101695.00
2023-09-06T17:57:00.847Z,101695.00
2023-09-06T17:59:33.437Z,101702.00
2023-09-06T18:02:05.891Z,101701.00
2023-09-06T18:04:36.598Z,101707.00
2023-09-06T18:07:07.502Z,101708.00
2023-09-06T18:09:40.586Z,101713.00
2023-09-06T18:12:11.848Z,101712.00
2023-09-06T18:14:43.763Z,101703.00
2023-09-06T18:17:14.280Z,101716.00
2023-09-06T18:19:44.778Z,101710.00
2023-09-06T18:22:16.121Z,101710.00
2023-09-06T18:24:49.289Z,101719.00
2023-09-06T18:27:20.903Z,101721.00
2023-09-06T18:29:51.487Z,101719.00
2023-09-06T18:32:21.996Z,101721.00
2023-09-06T18:34:53.402Z,101731.00
2023-09-06T18:37:24.147Z,101720.00
2023-09-06T18:39:57.433Z,101725.00
2023-09-06T18:42:28.196Z,101729.00
2023-09-06T18:44:59.048Z,101723.00
2023-09-06T18:47:29.730Z,101731.00
2023-09-06T18:50:08.458Z,101727.00
2023-09-06T18:52:40.658Z,101727.00
2023-09-06T18:55:16.228Z,101730.00
2023-09-06T18:57:59.670Z,101733.00
2023-09-06T19:00:38.409Z,101736.00
2023-09-06T19:03:13.353Z,101734.00
2023-09-06T19:05:44.802Z,101733.00
2023-09-06T19:08:16.776Z,101720.00
2023-09-06T19:10:50.265Z,101731.00
2023-09-06T19:13:21.402Z,101735.00
2023-09-06T19:15:52.508Z,101727.00
2023-09-06T19:18:23.214Z,101731.00
2023-09-06T19:20:53.684Z,101729.00
2023-09-06T19:23:24.227Z,101733.00
2023-09-06T19:25:59.319Z,101732.00
2023-09-06T19:28:31.262Z,101723.00
2023-09-06T19:31:02.765Z,101735.00
2023-09-06T19:33:37.251Z,101739.00
2023-09-06T19:36:08.615Z,101741.00
2023-09-06T19:38:39.209Z,101742.00
2023-09-06T19:41:12.353Z,101737.00
2023-09-06T19:43:42.935Z,101743.00
2023-09-06T19:46:13.435Z,101743.00
2023-09-06T19:49:03.615Z,101741.00
2023-09-06T19:51:35.032Z,101754.00
2023-09-06T19:54:05.837Z,101747.00
2023-09-06T19:56:39.097Z,101747.00
2023-09-06T19:59:09.596Z,101744.00
2023-09-06T20:01:40.234Z,101741.00
2023-09-06T20:04:11.231Z,101750.00
2023-09-06T20:06:42.531Z,101752.00
2023-09-06T20:09:14.276Z,101745.00
2023-09-06T20:11:47.810Z,101753.00
2023-09-06T20:14:19.706Z,101739.00
2023-09-06T20:16:50.210Z,101739.00
2023-09-06T20:19:23.517Z,101747.00
2023-09-06T20:21:54.012Z,101740.00
2023-09-06T20:24:24.512Z,101740.00
2023-09-06T20:26:57.629Z,101741.00
2023-09-06T20:29:33.287Z,101741.00
2023-09-06T20:32:03.996Z,101738.00
2023-09-06T20:34:34.855Z,101739.00
2023-09-06T20:37:05.307Z,101747.00
2023-09-06T20:39:35.860Z,101746.00
2023-09-06T20:42:09.184Z,101743.00
2023-09-06T20:44:40.636Z,101745.00
2023-09-06T20:47:11.156Z,101753.00
2023-09-06T20:49:44.747Z,101750.00
2023-09-06T20:52:16.044Z,101749.00
2023-09-06T20:54:47.011Z,101753.00
2023-09-06T20:57:20.184Z,101746.00
2023-09-06T20:59:50.683Z,101750.00
2023-09-06T21:02:22.989Z,101748.00
2023-09-06T21:04:54.060Z,101752.00
2023-09-06T21:07:24.585Z,101757.00
2023-09-06T21:09:55.401Z,101758.00
2023-09-06T21:12:33.385Z,101762.00
2023-09-06T21:15:05.660Z,101769.00
2023-09-06T21:17:38.258Z,101761.00
2023-09-06T21:20:10.478Z,101757.00
2023-09-06T21:22:40.939Z,101762.00
2023-09-06T21:25:12.381Z,101766.00
2023-09-06T21:27:45.465Z,101769.00
2023-09-06T21:30:16.250Z,101759.00
2023-09-06T21:32:46.902Z,101766.00
2023-09-06T21:35:17.448Z,101765.00
2023-09-06T21:37:47.920Z,101773.00
2023-09-06T21:40:18.408Z,101773.00
2023-09-06T21:43:00.080Z,101773.00
2023-09-06T21:45:41.637Z,101781.00
2023-09-06T21:48:12.953Z,101782.00
2023-09-06T21:50:44.814Z,101785.00
2023-09-06T21:53:15.259Z,101777.00
2023-09-06T21:55:45.685Z,101782.00
2023-09-06T21:58:18.777Z,101782.00
2023-09-06T22:00:49.666Z,101781.00
2023-09-06T22:03:20.167Z,101790.00
2023-09-06T22:05:52.805Z,101794.00
2023-09-06T22:08:23.647Z,101789.00
2023-09-06T22:10:54.097Z,101789.00
2023-09-06T22:13:27.209Z,101792.00
2023-09-06T22:15:57.728Z,101801.00
2023-09-06T22:18:28.624Z,101801.00
2023-09-06T22:20:59.296Z,101794.00
2023-09-06T22:23:29.736Z,101803.00
2023-09-06T22:26:04.133Z,101801.00
2023-09-06T22:28:37.294Z,101806.00
2023-09-06T22:31:07.787Z,101801.00
2023-09-06T22:33:38.261Z,101801.00
2023-09-06T22:36:08.880Z,101796.00
2023-09-06T22:38:39.314Z,101793.00
2023-09-06T22:41:09.812Z,101797.00
2023-09-06T22:43:42.861Z,101800.00
2023-09-06T22:46:13.487Z,101806.00
2023-09-06T22:48:54.470Z,101803.00
2023-09-06T22:51:25.581Z,101798.00
2023-09-06T22:53:56.000Z,101796.00
2023-09-06T22:56:26.425Z,101794.00
2023-09-06T22:58:59.477Z,101799.00
2023-09-06T23:01:30.044Z,101802.00
2023-09-06T23:04:00.730Z,101802.00
2023-09-06T23:06:31.653Z,101805.00
2023-09-06T23:09:02.216Z,101798.00
2023-09-06T23:11:35.565Z,101800.00
2023-09-06T23:14:14.352Z,101806.00
2023-09-06T23:16:47.036Z,101813.00
2023-09-06T23:19:21.021Z,101810.00
2023-09-06T23:21:56.364Z,101809.00
2023-09-06T23:24:29.253Z,101812.00
2023-09-06T23:27:00.951Z,101818.00
2023-09-06T23:32:25.674Z,101813.00
2023-09-06T23:34:59.432Z,101813.00
2023-09-06T23:37:29.991Z,101815.00
2023-09-06T23:40:02.095Z,101818.00
2023-09-06T23:42:32.828Z,101813.00
2023-09-06T23:45:07.398Z,101812.00
2023-09-06T23:47:37.626Z,101809.00
2023-09-06T23:50:09.004Z,101809.00
2023-09-06T23:52:39.429Z,101814.00
2023-09-06T23:55:10.317Z,101808.00
2023-09-06T23:57:40.728Z,101812.00
